Terminal Aerodrome Forecast
Issued by NWS Jackson, KY

Home | Current Version | Previous Version | Text Only | Print | Product List | Glossary On
Versions: 1 2 3 4 5 6 7 8 9 10 11 12 13 14
805
FTUS43 KJKL 041729
TAFLOZ
TAF
KLOZ 041729Z 0418/0518 24009G18KT P6SM BKN080
     FM041900 25011KT 5SM -SHRA VCTS SCT040CB OVC070
     FM042200 27008KT P6SM VCSH OVC035
     FM050200 30009KT P6SM OVC050
     FM051400 31008KT P6SM OVC015=

USA.gov is the U.S. government's official web portal to all federal, state and local government web resources and services.